Time;durP1;ratioP1;P1;durP2;ratioP2;P2;SDS_P1;SDS_P2;PMS_P1;PMS_P2;Temp;Humidity;BMP_temperature;BMP_pressure;BME280_temperature;BME280_humidity;BME280_pressure;Samples;Min_cycle;Max_cycle;Signal;HPM_P1;HPM_P2
2023/03/01 00:01:23;;;;;;;0.70;0.70;;;0.60;99.90;;;;;;5114081;28;20658;-69
2023/03/01 00:03:49;;;;;;;0.80;0.80;;;0.50;99.90;;;;;;5113950;28;20626;-68
2023/03/01 00:06:15;;;;;;;0.57;0.57;;;0.40;99.90;;;;;;5113979;28;20294;-69
2023/03/01 00:08:41;;;;;;;0.60;0.60;;;0.30;99.90;;;;;;5113931;28;20192;-69
2023/03/01 00:11:12;;;;;;;0.50;0.50;;;0.10;99.90;;;;;;5095606;28;20278;-69
2023/03/01 00:13:38;;;;;;;0.60;0.60;;;0.00;99.90;;;;;;5113848;28;21282;-69
2023/03/01 00:16:10;;;;;;;0.70;0.70;;;-0.10;99.90;;;;;;5114048;28;20195;-68
2023/03/01 00:18:36;;;;;;;0.60;0.60;;;-0.20;99.90;;;;;;5113818;28;20187;-69
2023/03/01 00:21:02;;;;;;;0.50;0.50;;;-0.30;99.90;;;;;;5113873;28;20654;-69
2023/03/01 00:23:28;;;;;;;0.60;0.60;;;-0.40;99.90;;;;;;5113527;28;20673;-68
2023/03/01 00:25:54;;;;;;;0.60;0.60;;;-0.50;99.90;;;;;;5113787;28;20286;-69
2023/03/01 00:28:20;;;;;;;0.60;0.60;;;-0.50;99.90;;;;;;5113614;28;20545;-70
2023/03/01 00:30:47;;;;;;;0.60;0.60;;;-0.50;99.90;;;;;;5114150;28;20194;-69
2023/03/01 00:33:13;;;;;;;0.60;0.60;;;-0.50;99.90;;;;;;5113291;28;20549;-69
2023/03/01 00:35:39;;;;;;;0.60;0.60;;;-0.60;99.90;;;;;;5095195;28;20203;-68
2023/03/01 00:38:05;;;;;;;0.60;0.60;;;-0.60;99.90;;;;;;5113676;28;20799;-69
2023/03/01 00:40:33;;;;;;;0.50;0.50;;;-0.70;99.90;;;;;;5119464;27;20219;-69
2023/03/01 00:42:59;;;;;;;0.60;0.60;;;-0.60;99.90;;;;;;5134071;27;20206;-68
2023/03/01 00:45:26;;;;;;;0.60;0.60;;;-0.40;99.90;;;;;;5118874;27;20553;-68
2023/03/01 00:47:52;;;;;;;0.60;0.60;;;-0.30;99.90;;;;;;5113407;28;20187;-68
2023/03/01 00:50:18;;;;;;;0.60;0.60;;;-0.20;99.90;;;;;;5113392;28;20274;-68
2023/03/01 00:52:44;;;;;;;0.63;0.63;;;0.10;99.90;;;;;;5113540;28;20253;-69
2023/03/01 00:55:10;;;;;;;0.60;0.60;;;0.30;99.90;;;;;;5113343;28;20232;-69
2023/03/01 00:57:36;;;;;;;0.57;0.57;;;0.40;99.90;;;;;;5113209;28;20196;-68
2023/03/01 01:00:03;;;;;;;0.60;0.60;;;0.50;99.90;;;;;;5113250;28;20551;-69
2023/03/01 01:02:29;;;;;;;0.70;0.70;;;0.50;99.90;;;;;;5112780;28;20195;-69
2023/03/01 01:04:55;;;;;;;0.70;0.70;;;0.50;99.90;;;;;;5113247;28;20207;-69
2023/03/01 01:07:20;;;;;;;0.60;0.60;;;0.60;99.90;;;;;;5112805;28;20203;-69
2023/03/01 01:09:46;;;;;;;0.70;0.70;;;0.60;99.90;;;;;;5113257;28;20222;-69
2023/03/01 01:12:12;;;;;;;0.60;0.60;;;0.60;99.90;;;;;;5113090;28;20595;-69
2023/03/01 01:14:38;;;;;;;0.60;0.60;;;0.60;99.90;;;;;;5112882;28;20274;-69
2023/03/01 01:17:04;;;;;;;0.70;0.70;;;0.40;99.90;;;;;;5112940;28;20191;-69
2023/03/01 01:19:30;;;;;;;0.60;0.60;;;0.30;99.90;;;;;;5094559;28;20249;-68
2023/03/01 01:21:56;;;;;;;0.60;0.60;;;0.30;99.90;;;;;;5112945;28;20195;-69
2023/03/01 01:24:22;;;;;;;0.60;0.60;;;0.20;99.90;;;;;;5112721;28;20191;-68
2023/03/01 01:26:48;;;;;;;0.60;0.60;;;0.20;99.90;;;;;;5112616;28;20203;-68
2023/03/01 01:29:14;;;;;;;0.50;0.50;;;0.10;99.90;;;;;;5112637;28;20778;-69
2023/03/01 01:31:41;;;;;;;0.50;0.50;;;-0.10;99.90;;;;;;5112906;28;20219;-68
2023/03/01 01:34:12;;;;;;;0.60;0.60;;;-0.10;99.90;;;;;;5112649;28;20659;-69
2023/03/01 01:36:38;;;;;;;0.65;0.65;;;-0.20;99.90;;;;;;5107937;28;20784;-69
2023/03/01 01:39:04;;;;;;;0.60;0.60;;;-0.40;99.90;;;;;;5092182;28;20200;-68
2023/03/01 01:41:30;;;;;;;0.50;0.50;;;-0.50;99.90;;;;;;5105196;28;20758;-68
2023/03/01 01:44:14;;;;;;;0.65;0.65;;;-0.50;99.90;;;;;;5112714;28;20274;-69
2023/03/01 01:47:03;;;;;;;0.60;0.60;;;-0.60;99.90;;;;;;5112421;28;20233;-69
2023/03/01 01:49:41;;;;;;;0.60;0.60;;;-0.60;99.90;;;;;;5094328;28;20690;-69
2023/03/01 01:52:07;;;;;;;0.60;0.60;;;-0.70;99.90;;;;;;5112700;28;20203;-69
2023/03/01 01:54:45;;;;;;;0.52;0.52;;;-0.80;99.90;;;;;;5094301;28;20195;-69
2023/03/01 01:57:18;;;;;;;0.73;0.73;;;-0.80;99.90;;;;;;5112676;28;20191;-69
2023/03/01 01:59:47;;;;;;;0.60;0.60;;;-0.90;99.90;;;;;;5112360;28;20223;-68
2023/03/01 02:02:14;;;;;;;0.50;0.50;;;-1.00;99.90;;;;;;5094348;28;20200;-80
2023/03/01 02:04:40;;;;;;;0.60;0.60;;;-1.00;99.90;;;;;;5121301;22;20241;-80
2023/03/01 02:07:19;;;;;;;0.60;0.60;;;-1.10;99.90;;;;;;5073687;28;20247;-80
2023/03/01 02:09:52;;;;;;;0.70;0.70;;;-1.20;99.90;;;;;;5073905;28;20600;-79
2023/03/01 02:12:21;;;;;;;0.70;0.70;;;-1.30;99.90;;;;;;5073851;28;20735;-79
2023/03/01 02:14:47;;;;;;;0.60;0.60;;;-1.30;99.90;;;;;;5073770;28;20227;-79
2023/03/01 02:17:15;;;;;;;0.63;0.63;;;-1.40;99.90;;;;;;5073634;28;20193;-80
2023/03/01 02:19:54;;;;;;;0.60;0.60;;;-1.40;99.90;;;;;;5073008;28;20204;-79
2023/03/01 02:22:30;;;;;;;0.70;0.70;;;-1.30;99.90;;;;;;5074965;28;20199;-79
2023/03/01 02:25:11;;;;;;;0.68;0.68;;;-1.40;99.90;;;;;;5058902;28;20196;-79
2023/03/01 02:27:49;;;;;;;0.60;0.60;;;-1.40;99.90;;;;;;5076750;28;20193;-79
2023/03/01 02:30:15;;;;;;;0.60;0.60;;;-1.50;99.90;;;;;;5059217;28;20216;-80
2023/03/01 02:32:41;;;;;;;0.68;0.68;;;-1.50;99.90;;;;;;5076961;28;20650;-79
2023/03/01 02:35:14;;;;;;;0.55;0.55;;;-1.50;99.90;;;;;;5077303;28;20399;-80
2023/03/01 02:37:42;;;;;;;0.70;0.70;;;-1.60;99.90;;;;;;5077016;28;20197;-80
2023/03/01 02:40:13;;;;;;;0.70;0.70;;;-1.50;99.90;;;;;;5076760;28;20220;-80
2023/03/01 02:42:49;;;;;;;0.55;0.55;;;-1.50;99.90;;;;;;5058677;28;20196;-79
2023/03/01 02:45:15;;;;;;;0.57;0.57;;;-1.30;99.90;;;;;;5076810;28;20189;-80
2023/03/01 02:47:41;;;;;;;0.70;0.70;;;-1.20;99.90;;;;;;5058337;28;20197;-79
2023/03/01 02:50:23;;;;;;;0.60;0.60;;;-1.20;99.90;;;;;;5076732;28;20678;-80
2023/03/01 02:53:01;;;;;;;0.60;0.60;;;-1.20;99.90;;;;;;5075799;28;20227;-79
2023/03/01 02:55:27;;;;;;;0.50;0.50;;;-1.30;99.90;;;;;;5076275;28;20275;-79
2023/03/01 02:57:55;;;;;;;0.70;0.70;;;-1.20;99.90;;;;;;5076018;28;20189;-79
2023/03/01 03:00:26;;;;;;;0.60;0.60;;;-1.20;99.90;;;;;;5057483;28;20197;-79
2023/03/01 03:02:53;;;;;;;0.60;0.60;;;-1.00;99.90;;;;;;5057071;28;20590;-79
2023/03/01 03:05:30;;;;;;;0.50;0.50;;;-1.00;99.90;;;;;;5056450;28;20683;-79
2023/03/01 03:07:57;;;;;;;0.70;0.70;;;-1.10;99.90;;;;;;5075569;28;20268;-79
2023/03/01 03:10:26;;;;;;;0.60;0.60;;;-1.10;99.90;;;;;;5075121;28;20220;-79
2023/03/01 03:12:55;;;;;;;0.70;0.70;;;-1.10;99.90;;;;;;5075211;28;20193;-79
2023/03/01 03:15:21;;;;;;;0.60;0.60;;;-1.20;99.90;;;;;;5075212;28;20196;-79
2023/03/01 03:17:47;;;;;;;0.60;0.60;;;-1.30;99.90;;;;;;5075541;28;20200;-79
2023/03/01 03:20:18;;;;;;;0.60;0.60;;;-1.40;99.90;;;;;;5045383;28;20201;-79
2023/03/01 03:22:46;;;;;;;0.70;0.70;;;-1.50;99.90;;;;;;5068426;28;20197;-79
2023/03/01 03:25:11;;;;;;;0.50;0.50;;;-1.60;99.90;;;;;;5074662;28;20188;-80
2023/03/01 03:27:43;;;;;;;0.70;0.70;;;-1.60;99.90;;;;;;5074686;28;20189;-79
2023/03/01 03:30:13;;;;;;;0.60;0.60;;;-1.60;99.90;;;;;;5074801;28;20193;-80
2023/03/01 03:32:51;;;;;;;0.70;0.70;;;-1.60;99.90;;;;;;5075991;28;20196;-80
2023/03/01 03:35:22;;;;;;;0.65;0.65;;;-1.60;99.90;;;;;;5074943;28;20196;-79
2023/03/01 03:38:05;;;;;;;0.55;0.55;;;-1.60;99.90;;;;;;5075448;28;20241;-79
2023/03/01 03:40:38;;;;;;;0.63;0.63;;;-1.70;99.90;;;;;;5074895;28;20200;-79
2023/03/01 03:43:06;;;;;;;0.70;0.70;;;-1.70;99.90;;;;;;5056643;28;20201;-80
2023/03/01 03:45:33;;;;;;;0.60;0.60;;;-1.80;99.90;;;;;;5074449;28;20205;-80
2023/03/01 03:47:59;;;;;;;0.68;0.68;;;-1.90;99.90;;;;;;5075059;28;20192;-80
2023/03/01 03:50:25;;;;;;;0.60;0.60;;;-1.90;99.90;;;;;;5074903;28;20541;-79
2023/03/01 03:52:51;;;;;;;0.55;0.55;;;-2.00;99.90;;;;;;5075415;28;20196;-79
2023/03/01 03:55:19;;;;;;;0.70;0.70;;;-2.00;99.90;;;;;;5057011;28;20199;-80
2023/03/01 03:57:51;;;;;;;0.73;0.73;;;-2.00;99.90;;;;;;5075087;28;20615;-79
2023/03/01 04:00:19;;;;;;;0.68;0.68;;;-2.10;99.90;;;;;;5075098;28;20187;-79
2023/03/01 04:02:46;;;;;;;0.80;0.80;;;-2.10;99.90;;;;;;5061535;28;20189;-79
2023/03/01 04:05:17;;;;;;;0.75;0.75;;;-2.10;99.90;;;;;;5054501;28;20225;-79
2023/03/01 04:07:44;;;;;;;0.80;0.80;;;-2.10;99.90;;;;;;5037010;28;20213;-79
2023/03/01 04:10:12;;;;;;;0.73;0.73;;;-2.10;99.90;;;;;;5054872;28;20194;-80
2023/03/01 04:12:38;;;;;;;0.60;0.60;;;-2.10;99.90;;;;;;5054629;28;20197;-79
2023/03/01 04:15:12;;;;;;;0.60;0.60;;;-2.10;99.90;;;;;;5037203;28;20197;-79
2023/03/01 04:17:46;;;;;;;0.60;0.60;;;-2.00;99.90;;;;;;5056564;28;20192;-80
2023/03/01 04:20:17;;;;;;;0.70;0.70;;;-1.90;99.90;;;;;;5074080;28;20201;-79
2023/03/01 04:22:46;;;;;;;0.60;0.60;;;-1.70;99.90;;;;;;5074469;28;20221;-79
2023/03/01 04:25:13;;;;;;;0.75;0.75;;;-1.60;99.90;;;;;;5074558;28;20185;-79
2023/03/01 04:27:40;;;;;;;0.75;0.75;;;-1.50;99.90;;;;;;5073995;28;20196;-80
2023/03/01 04:30:06;;;;;;;0.70;0.70;;;-1.50;99.90;;;;;;5074278;28;20720;-80
2023/03/01 04:32:32;;;;;;;0.60;0.60;;;-1.50;99.90;;;;;;5075161;28;20296;-79
2023/03/01 04:34:58;;;;;;;0.80;0.75;;;-1.60;99.90;;;;;;5076716;28;20200;-79
2023/03/01 04:37:25;;;;;;;0.60;0.60;;;-1.60;99.90;;;;;;5074299;28;20222;-79
2023/03/01 04:39:50;;;;;;;0.70;0.70;;;-1.70;99.90;;;;;;5074311;28;20203;-79
2023/03/01 04:42:16;;;;;;;0.70;0.70;;;-1.70;99.90;;;;;;5073843;28;20193;-79
2023/03/01 04:44:43;;;;;;;0.80;0.80;;;-1.80;99.90;;;;;;5073628;28;20288;-79
2023/03/01 04:47:09;;;;;;;0.70;0.70;;;-1.90;99.90;;;;;;5056239;28;20212;-79
2023/03/01 04:49:34;;;;;;;0.70;0.70;;;-2.00;99.90;;;;;;5055777;28;20193;-79
2023/03/01 04:52:03;;;;;;;0.70;0.70;;;-2.20;99.90;;;;;;5074030;28;20659;-80
2023/03/01 04:54:31;;;;;;;0.70;0.70;;;-2.30;99.90;;;;;;5073841;28;20295;-80
2023/03/01 04:56:57;;;;;;;0.80;0.80;;;-2.40;99.90;;;;;;5055476;28;20193;-80
2023/03/01 04:59:23;;;;;;;0.68;0.68;;;-2.50;99.90;;;;;;5072611;28;20678;-79
2023/03/01 05:01:50;;;;;;;0.68;0.68;;;-2.50;99.90;;;;;;5055126;28;20275;-79
2023/03/01 05:04:16;;;;;;;0.70;0.70;;;-2.60;99.90;;;;;;5072257;28;20320;-79
2023/03/01 05:06:42;;;;;;;0.70;0.70;;;-2.70;99.90;;;;;;5072718;28;20299;-79
2023/03/01 05:09:08;;;;;;;0.60;0.60;;;-2.80;99.90;;;;;;5073090;28;20272;-79
2023/03/01 05:11:35;;;;;;;0.70;0.70;;;-2.80;99.90;;;;;;5054856;28;20195;-79
2023/03/01 05:14:02;;;;;;;0.60;0.60;;;-2.90;99.90;;;;;;5072986;28;20323;-80
2023/03/01 05:16:28;;;;;;;0.77;0.77;;;-2.90;99.90;;;;;;5072824;28;20199;-79
2023/03/01 05:18:55;;;;;;;0.70;0.70;;;-3.00;99.90;;;;;;5073269;28;20280;-79
2023/03/01 05:21:21;;;;;;;0.90;0.90;;;-3.00;99.90;;;;;;5072876;28;20197;-79
2023/03/01 05:23:46;;;;;;;0.70;0.70;;;-3.10;99.90;;;;;;5072912;28;20197;-78
2023/03/01 05:26:13;;;;;;;0.60;0.60;;;-3.10;99.90;;;;;;5072739;28;20208;-80
2023/03/01 05:28:39;;;;;;;0.60;0.60;;;-3.10;99.90;;;;;;5073192;28;20348;-80
2023/03/01 05:31:15;;;;;;;0.80;0.80;;;-3.00;99.90;;;;;;5093404;28;20271;-79
2023/03/01 05:33:41;;;;;;;0.77;0.77;;;-3.00;99.90;;;;;;5080066;28;20246;-78
2023/03/01 05:36:09;;;;;;;0.80;0.80;;;-2.90;99.90;;;;;;5071465;28;20197;-79
2023/03/01 05:38:35;;;;;;;0.70;0.70;;;-2.90;99.90;;;;;;5072916;28;20196;-78
2023/03/01 05:41:01;;;;;;;0.68;0.68;;;-2.70;99.90;;;;;;5071407;28;20691;-79
2023/03/01 05:43:33;;;;;;;0.70;0.70;;;-2.50;99.90;;;;;;5072633;28;20197;-80
2023/03/01 05:46:00;;;;;;;0.80;0.80;;;-2.50;99.90;;;;;;5072374;28;20232;-79
2023/03/01 05:48:25;;;;;;;0.80;0.80;;;-2.50;99.90;;;;;;5054181;28;20234;-79
2023/03/01 05:50:51;;;;;;;0.60;0.60;;;-2.50;99.90;;;;;;5073148;28;20705;-79
2023/03/01 05:53:22;;;;;;;0.75;0.75;;;-2.50;99.90;;;;;;5073071;28;20191;-79
2023/03/01 05:55:49;;;;;;;0.70;0.70;;;-2.40;99.90;;;;;;5072582;28;20193;-80
2023/03/01 05:58:17;;;;;;;0.80;0.80;;;-2.40;99.90;;;;;;5057855;28;20241;-80
2023/03/01 06:00:47;;;;;;;0.80;0.80;;;-2.30;99.90;;;;;;5076605;28;20630;-79
2023/03/01 06:03:14;;;;;;;0.68;0.68;;;-2.30;99.90;;;;;;5077382;28;20257;-79
2023/03/01 06:05:40;;;;;;;0.60;0.60;;;-2.20;99.90;;;;;;5076505;28;20237;-79
2023/03/01 06:08:06;;;;;;;0.80;0.80;;;-2.20;99.90;;;;;;5076991;28;20185;-79
2023/03/01 06:10:32;;;;;;;0.77;0.77;;;-2.30;99.90;;;;;;5076484;28;20248;-79
2023/03/01 06:12:58;;;;;;;0.70;0.70;;;-2.40;99.90;;;;;;5076653;28;20200;-80
2023/03/01 06:15:25;;;;;;;0.80;0.80;;;-2.40;99.90;;;;;;5076179;28;20189;-79
2023/03/01 06:17:51;;;;;;;0.80;0.80;;;-2.40;99.90;;;;;;5076882;28;20300;-80
2023/03/01 06:20:22;;;;;;;0.70;0.70;;;-2.50;99.90;;;;;;5076472;28;20192;-80
2023/03/01 06:22:49;;;;;;;0.70;0.70;;;-2.50;99.90;;;;;;5058366;28;20192;-80
2023/03/01 06:25:17;;;;;;;0.70;0.70;;;-2.40;99.90;;;;;;5080371;28;20237;-80
2023/03/01 06:27:44;;;;;;;0.80;0.80;;;-2.30;99.90;;;;;;5078592;28;20631;-79
2023/03/01 06:30:13;;;;;;;0.70;0.70;;;-2.20;99.90;;;;;;5096567;28;20188;-80
2023/03/01 06:32:42;;;;;;;0.60;0.60;;;-2.20;99.90;;;;;;5092054;28;20205;-79
2023/03/01 06:35:14;;;;;;;0.70;0.70;;;-2.30;99.90;;;;;;5076330;28;20231;-80
2023/03/01 06:37:41;;;;;;;0.70;0.70;;;-2.30;99.90;;;;;;5076065;28;20213;-80
2023/03/01 06:40:08;;;;;;;0.60;0.60;;;-2.30;99.90;;;;;;5058283;28;20609;-79
2023/03/01 06:42:35;;;;;;;0.77;0.77;;;-2.30;99.90;;;;;;5075960;28;20675;-79
2023/03/01 06:45:02;;;;;;;0.70;0.70;;;-2.40;99.90;;;;;;5076231;28;20236;-79
2023/03/01 06:47:28;;;;;;;0.77;0.77;;;-2.40;99.90;;;;;;5058298;28;20294;-79
2023/03/01 06:49:54;;;;;;;0.70;0.70;;;-2.40;99.90;;;;;;5058636;28;20196;-79
2023/03/01 06:52:20;;;;;;;0.60;0.60;;;-2.40;99.90;;;;;;5077054;28;20192;-79
2023/03/01 06:54:45;;;;;;;0.63;0.63;;;-2.30;99.90;;;;;;5076768;28;20644;-80
2023/03/01 06:57:11;;;;;;;0.82;0.82;;;-2.20;99.90;;;;;;5076345;28;20280;-79
2023/03/01 06:59:37;;;;;;;0.70;0.70;;;-2.10;99.90;;;;;;5076298;28;20195;-79
2023/03/01 07:02:02;;;;;;;0.60;0.60;;;-1.90;99.90;;;;;;5076352;28;20193;-79
2023/03/01 07:04:28;;;;;;;0.70;0.70;;;-1.80;99.90;;;;;;5075578;28;20233;-79
2023/03/01 07:06:55;;;;;;;0.70;0.70;;;-1.60;99.90;;;;;;5075819;28;20235;-79
2023/03/01 07:09:22;;;;;;;0.70;0.70;;;-1.50;99.90;;;;;;5075795;28;20201;-79
2023/03/01 07:11:48;;;;;;;0.80;0.80;;;-1.40;99.90;;;;;;5076123;28;20196;-80
2023/03/01 07:14:14;;;;;;;9.90;3.33;;;-1.40;99.90;;;;;;5057875;28;20562;-80
2023/03/01 07:16:40;;;;;;;0.75;0.75;;;-1.30;99.90;;;;;;5075275;28;20200;-79
2023/03/01 07:19:06;;;;;;;0.80;0.80;;;-1.30;99.90;;;;;;5057228;28;20199;-80
2023/03/01 07:21:32;;;;;;;0.73;0.73;;;-1.20;99.90;;;;;;5060789;28;20204;-80
2023/03/01 07:23:57;;;;;;;0.65;0.65;;;-1.10;99.90;;;;;;5095145;28;20200;-80
2023/03/01 07:26:23;;;;;;;0.70;0.70;;;-0.80;99.90;;;;;;5094961;28;20212;-80
2023/03/01 07:28:49;;;;;;;0.70;0.70;;;-0.50;99.90;;;;;;5095366;28;20211;-79
2023/03/01 07:31:15;;;;;;;0.70;0.70;;;-0.30;99.90;;;;;;5095363;28;20686;-80
2023/03/01 07:33:40;;;;;;;0.60;0.60;;;0.00;99.90;;;;;;5082652;28;20193;-80
2023/03/01 07:36:07;;;;;;;0.60;0.60;;;0.20;99.90;;;;;;5057376;28;20609;-80
2023/03/01 07:38:33;;;;;;;0.70;0.70;;;0.50;99.90;;;;;;5057079;28;20322;-80
2023/03/01 07:41:03;;;;;;;0.70;0.70;;;0.60;99.90;;;;;;5074822;28;20204;-80
2023/03/01 07:43:30;;;;;;;0.60;0.60;;;0.70;99.90;;;;;;5074751;28;20200;-80
2023/03/01 07:46:02;;;;;;;0.70;0.70;;;0.80;99.90;;;;;;5076139;28;20201;-80
2023/03/01 07:48:29;;;;;;;0.60;0.60;;;1.00;99.90;;;;;;5074869;28;20567;-80
2023/03/01 07:50:57;;;;;;;0.60;0.60;;;1.10;99.90;;;;;;5076220;28;20189;-80
2023/03/01 07:53:23;;;;;;;0.70;0.70;;;1.30;99.90;;;;;;5057689;28;20280;-80
2023/03/01 07:55:49;;;;;;;0.70;0.70;;;1.50;99.90;;;;;;5075420;28;20627;-80
2023/03/01 07:58:14;;;;;;;0.70;0.70;;;1.70;99.90;;;;;;5074513;28;20280;-80
2023/03/01 08:00:40;;;;;;;0.50;0.50;;;1.90;99.90;;;;;;5074482;28;20280;-80
2023/03/01 08:03:06;;;;;;;0.60;0.60;;;2.00;99.90;;;;;;5073923;28;20207;-80
2023/03/01 08:05:32;;;;;;;0.60;0.60;;;2.20;99.90;;;;;;5055309;28;20232;-80
2023/03/01 08:07:58;;;;;;;0.63;0.63;;;2.30;99.90;;;;;;5073968;28;20685;-80
2023/03/01 08:10:23;;;;;;;0.68;0.68;;;2.50;99.90;;;;;;5073434;28;20181;-79
2023/03/01 08:12:52;;;;;;;0.52;0.52;;;2.60;99.90;;;;;;5055951;28;20193;-80
2023/03/01 08:15:18;;;;;;;0.50;0.50;;;2.70;99.90;;;;;;5073641;28;20193;-80
2023/03/01 08:17:44;;;;;;;0.60;0.60;;;2.90;99.90;;;;;;5076989;28;20291;-80
2023/03/01 08:20:12;;;;;;;0.60;0.60;;;3.00;99.90;;;;;;5075680;28;20232;-80
2023/03/01 08:22:37;;;;;;;0.60;0.60;;;3.10;99.90;;;;;;5076233;28;20551;-80
2023/03/01 08:25:03;;;;;;;0.55;0.55;;;3.30;99.90;;;;;;5094968;28;20242;-80
2023/03/01 08:27:29;;;;;;;0.57;0.57;;;3.40;99.90;;;;;;5094829;28;20665;-80
2023/03/01 08:29:55;;;;;;;0.50;0.50;;;3.50;99.90;;;;;;5077405;28;20200;-80
2023/03/01 08:32:20;;;;;;;0.63;0.63;;;3.60;99.90;;;;;;5092540;28;20207;-79
2023/03/01 08:34:47;;;;;;;0.60;0.60;;;3.70;99.90;;;;;;5073837;28;20611;-80
2023/03/01 08:37:13;;;;;;;0.52;0.52;;;3.80;99.90;;;;;;5073723;28;20221;-80
2023/03/01 08:39:38;;;;;;;0.40;0.40;;;3.90;99.90;;;;;;5055777;28;20204;-79
2023/03/01 08:42:04;;;;;;;0.60;0.60;;;4.10;99.90;;;;;;5055697;28;20601;-80
2023/03/01 08:44:30;;;;;;;0.70;0.70;;;4.20;99.90;;;;;;5072922;28;20188;-79
2023/03/01 08:46:55;;;;;;;0.63;0.63;;;4.40;99.90;;;;;;5073135;28;20228;-81
2023/03/01 08:49:21;;;;;;;0.70;0.70;;;4.50;99.90;;;;;;5073165;28;20678;-80
2023/03/01 08:51:48;;;;;;;0.60;0.60;;;4.70;99.90;;;;;;5073222;28;20662;-79
2023/03/01 08:54:17;;;;;;;0.70;0.70;;;4.80;99.90;;;;;;5072786;28;20189;-80
2023/03/01 08:56:43;;;;;;;0.70;0.70;;;5.10;99.90;;;;;;5072981;28;20197;-80
2023/03/01 08:59:10;;;;;;;0.55;0.55;;;5.20;99.90;;;;;;5054664;28;20283;-80
2023/03/01 09:01:36;;;;;;;0.70;0.70;;;5.30;99.90;;;;;;5054479;28;20200;-80
2023/03/01 09:04:03;;;;;;;0.70;0.70;;;5.50;99.90;;;;;;5072448;28;20322;-83
2023/03/01 09:06:32;;;;;;;0.63;0.63;;;5.60;99.90;;;;;;5072475;28;20721;-80
2023/03/01 09:08:58;;;;;;;0.60;0.60;;;5.70;99.90;;;;;;5073111;28;20243;-80
2023/03/01 09:11:24;;;;;;;0.60;0.60;;;5.70;99.90;;;;;;5072781;28;20608;-80
2023/03/01 09:13:50;;;;;;;0.70;0.70;;;5.90;99.90;;;;;;5075683;28;20197;-80
2023/03/01 09:16:18;;;;;;;0.75;0.75;;;6.00;99.90;;;;;;5094009;28;20196;-80
2023/03/01 09:18:48;;;;;;;0.70;0.70;;;6.20;99.90;;;;;;5093267;28;20559;-80
2023/03/01 09:21:15;;;;;;;0.57;0.57;;;6.50;99.90;;;;;;5075550;28;20192;-80
2023/03/01 09:23:43;;;;;;;0.60;0.60;;;6.70;99.90;;;;;;5093124;28;20192;-80
2023/03/01 09:26:12;;;;;;;0.60;0.60;;;6.70;99.90;;;;;;5093770;28;20204;-80
2023/03/01 09:28:38;;;;;;;0.60;0.60;;;6.70;99.90;;;;;;5093340;28;20188;-80
2023/03/01 09:31:04;;;;;;;0.60;0.60;;;6.80;99.90;;;;;;5076773;28;20196;-80
2023/03/01 09:33:32;;;;;;;0.60;0.60;;;6.90;99.90;;;;;;5084553;28;20322;-80
2023/03/01 09:36:03;;;;;;;0.60;0.60;;;7.10;99.90;;;;;;5058813;28;20201;-80
2023/03/01 09:38:29;;;;;;;0.60;0.60;;;7.20;99.90;;;;;;5058320;28;20536;-80
2023/03/01 09:40:56;;;;;;;0.68;0.68;;;7.30;99.90;;;;;;5076850;28;20199;-80
2023/03/01 09:43:27;;;;;;;0.60;0.60;;;7.40;99.90;;;;;;5058315;28;20203;-80
2023/03/01 09:45:58;;;;;;;0.65;0.65;;;7.40;99.90;;;;;;5075006;28;20212;-80
2023/03/01 09:48:27;;;;;;;0.60;0.60;;;7.60;99.90;;;;;;5076078;28;20188;-80
2023/03/01 09:50:53;;;;;;;0.47;0.47;;;7.80;99.90;;;;;;5058380;28;20563;-81
2023/03/01 09:53:23;;;;;;;0.52;0.52;;;7.90;99.90;;;;;;5076322;28;20193;-80
2023/03/01 09:55:52;;;;;;;0.60;0.60;;;8.10;99.90;;;;;;5075919;28;20555;-80
2023/03/01 09:58:44;;;;;;;0.57;0.57;;;8.30;99.90;;;;;;5058199;28;20710;-81
2023/03/01 10:01:38;;;;;;;0.60;0.60;;;8.50;99.90;;;;;;5075925;28;20568;-80
2023/03/01 10:04:15;;;;;;;0.60;0.60;;;8.60;99.90;;;;;;5075579;28;20755;-80
2023/03/01 10:07:02;;;;;;;0.60;0.60;;;8.80;99.90;;;;;;5075579;28;20281;-80
2023/03/01 10:09:33;;;;;;;0.50;0.50;;;9.00;99.90;;;;;;5075626;28;20207;-80
2023/03/01 10:12:03;;;;;;;0.60;0.60;;;9.30;99.90;;;;;;5094152;28;20206;-80
2023/03/01 10:14:46;;;;;;;0.60;0.60;;;9.20;99.90;;;;;;5095821;28;20189;-80
2023/03/01 10:17:17;;;;;;;0.60;0.60;;;9.20;99.90;;;;;;5095888;28;20220;-80
2023/03/01 10:19:46;;;;;;;0.60;0.60;;;9.00;99.90;;;;;;5095812;28;20246;-78
2023/03/01 10:22:31;;;;;;;0.60;0.60;;;8.80;99.90;;;;;;5095789;28;20196;-81
2023/03/01 10:25:03;;;;;;;0.60;0.60;;;8.90;99.90;;;;;;5095727;28;20188;-78
2023/03/01 10:27:52;;;;;;;0.50;0.50;;;9.00;99.90;;;;;;5095503;28;20734;-80
2023/03/01 10:30:22;;;;;;;0.60;0.60;;;9.10;99.90;;;;;;5079148;28;20224;-78
2023/03/01 10:32:50;;;;;;;0.60;0.60;;;9.20;99.90;;;;;;5075235;28;20189;-78
2023/03/01 10:35:26;;;;;;;0.60;0.60;;;9.30;99.90;;;;;;5075467;28;20181;-77
2023/03/01 10:38:14;;;;;;;0.60;0.60;;;9.50;99.90;;;;;;5075269;28;20197;-78
2023/03/01 10:41:07;;;;;;;0.60;0.60;;;9.70;99.90;;;;;;5057066;28;20204;-78
2023/03/01 10:43:57;;;;;;;0.50;0.50;;;9.80;99.90;;;;;;5074376;28;20563;-80
2023/03/01 10:46:32;;;;;;;0.57;0.57;;;9.90;99.90;;;;;;5074849;28;20300;-81
2023/03/01 10:49:20;;;;;;;0.63;0.63;;;9.90;99.90;;;;;;5075175;28;20267;-81
2023/03/01 10:51:52;;;;;;;0.60;0.60;;;10.00;99.90;;;;;;5057006;28;20197;-81
2023/03/01 10:54:17;;;;;;;0.50;0.50;;;10.10;99.90;;;;;;5075245;28;20192;-78
2023/03/01 10:56:55;;;;;;;0.60;0.60;;;9.90;99.90;;;;;;5074908;28;20556;-80
2023/03/01 10:59:41;;;;;;;0.57;0.57;;;9.90;99.90;;;;;;5074733;28;20716;-81
2023/03/01 11:02:27;;;;;;;0.60;0.60;;;10.00;99.90;;;;;;5056403;28;20205;-83
2023/03/01 11:05:13;;;;;;;0.60;0.60;;;9.80;99.90;;;;;;5054610;28;20229;-82
2023/03/01 11:07:48;;;;;;;0.50;0.50;;;9.50;99.90;;;;;;5079805;28;20224;-82
2023/03/01 11:10:18;;;;;;;0.60;0.60;;;9.60;99.90;;;;;;5094901;28;20779;-82
2023/03/01 11:12:43;;;;;;;0.60;0.60;;;9.50;99.90;;;;;;5094869;28;20209;-82
2023/03/01 11:15:25;;;;;;;0.60;0.60;;;9.60;99.90;;;;;;5076827;28;20290;-82
2023/03/01 11:17:50;;;;;;;0.60;0.60;;;10.00;99.90;;;;;;5076710;28;20282;-83
2023/03/01 11:20:35;;;;;;;0.55;0.55;;;10.20;99.90;;;;;;5094769;28;20200;-83
2023/03/01 11:23:05;;;;;;;0.60;0.60;;;10.30;99.90;;;;;;5094830;28;20309;-83
2023/03/01 11:25:37;;;;;;;0.60;0.60;;;10.10;99.90;;;;;;5086452;28;20195;-82
2023/03/01 11:28:05;;;;;;;0.60;0.60;;;10.00;99.90;;;;;;5056423;28;20563;-82
2023/03/01 11:30:38;;;;;;;0.50;0.50;;;10.00;99.90;;;;;;5074196;28;20686;-82
2023/03/01 11:33:38;;;;;;;0.60;0.60;;;10.20;99.90;;;;;;5074081;28;20654;-82
2023/03/01 11:36:22;;;;;;;0.60;0.60;;;10.50;99.90;;;;;;5073679;28;20343;-81
2023/03/01 11:38:48;;;;;;;0.50;0.50;;;10.60;99.90;;;;;;5074151;28;20238;-81
2023/03/01 11:41:21;;;;;;;0.50;0.50;;;10.70;99.90;;;;;;5074106;28;20200;-81
2023/03/01 11:44:24;;;;;;;0.60;0.60;;;10.80;99.90;;;;;;5074086;28;20200;-79
2023/03/01 11:47:11;;;;;;;0.60;0.60;;;10.70;99.90;;;;;;5074022;28;20201;-79
2023/03/01 11:50:11;;;;;;;0.50;0.50;;;10.80;99.90;;;;;;5073653;28;20189;-79
2023/03/01 11:53:11;;;;;;;0.50;0.50;;;10.90;99.90;;;;;;5045046;28;20207;-78
2023/03/01 11:56:08;;;;;;;0.55;0.55;;;10.80;99.90;;;;;;5072580;28;20189;-78
2023/03/01 11:59:06;;;;;;;0.50;0.50;;;10.90;99.90;;;;;;5055677;28;20197;-79
2023/03/01 12:01:50;;;;;;;0.50;0.50;;;10.60;99.90;;;;;;5053509;28;20243;-78
2023/03/01 12:04:33;;;;;;;0.60;0.60;;;10.20;99.90;;;;;;5086079;28;20269;-84
2023/03/01 12:07:09;;;;;;;1.55;1.45;;;10.40;99.90;;;;;;5075731;28;20227;-81
2023/03/01 12:09:53;;;;;;;0.50;0.50;;;10.60;99.90;;;;;;5075470;28;20249;-83
2023/03/01 12:12:38;;;;;;;0.40;0.40;;;10.60;99.90;;;;;;5093644;28;20598;-81
2023/03/01 12:15:34;;;;;;;0.50;0.50;;;10.50;99.90;;;;;;5093765;28;20261;-82
2023/03/01 12:18:09;;;;;;;0.60;0.60;;;10.80;99.90;;;;;;5075515;28;20662;-83
2023/03/01 12:21:08;;;;;;;0.60;0.60;;;11.30;99.90;;;;;;5075245;28;20191;-82
2023/03/01 12:24:16;;;;;;;0.60;0.60;;;11.10;99.90;;;;;;5051830;28;20606;-81
2023/03/01 12:27:05;;;;;;;0.50;0.50;;;10.50;99.90;;;;;;5038240;28;20295;-80
2023/03/01 12:29:46;;;;;;;0.50;0.50;;;10.50;99.90;;;;;;5053166;28;20598;-80
2023/03/01 12:32:27;;;;;;;0.52;0.52;;;10.70;99.90;;;;;;5053223;28;20205;-80
2023/03/01 12:35:08;;;;;;;0.60;0.60;;;10.60;99.90;;;;;;5073373;28;20189;-80
2023/03/01 12:37:53;;;;;;;0.60;0.60;;;10.60;99.90;;;;;;5072963;28;20184;-80
2023/03/01 12:40:42;;;;;;;0.50;0.50;;;10.60;99.90;;;;;;5073068;28;20705;-82
2023/03/01 12:43:18;;;;;;;0.68;0.68;;;10.80;99.90;;;;;;5054952;28;20204;-80
2023/03/01 12:46:10;;;;;;;0.50;0.50;;;10.80;99.90;;;;;;5054778;28;20204;-81
2023/03/01 12:49:01;;;;;;;0.50;0.50;;;10.80;99.90;;;;;;5054830;28;20664;-81
2023/03/01 12:51:31;;;;;;;0.50;0.50;;;10.60;99.90;;;;;;5054731;28;20199;-80
2023/03/01 12:54:01;;;;;;;0.60;0.60;;;10.60;99.90;;;;;;5054873;28;20242;-82
2023/03/01 12:56:30;;;;;;;0.50;0.50;;;10.70;99.90;;;;;;5054475;28;20731;-81
2023/03/01 12:59:18;;;;;;;0.60;0.60;;;10.50;99.90;;;;;;5057955;28;20196;-82
2023/03/01 13:02:16;;;;;;;0.50;0.50;;;10.40;99.90;;;;;;5092805;28;20253;-83
2023/03/01 13:05:00;;;;;;;5.15;1.02;;;10.70;99.90;;;;;;5092208;28;20227;-82
2023/03/01 13:07:44;;;;;;;0.60;0.60;;;10.80;99.90;;;;;;5074173;28;20756;-83
2023/03/01 13:10:34;;;;;;;0.60;0.60;;;10.40;99.90;;;;;;5092653;28;20223;-82